createdAt,value
2019-01-22T00:00:02.840Z,-2.30
2019-01-22T00:01:11.991Z,-2.40
2019-01-22T00:02:18.911Z,-2.40
2019-01-22T00:03:25.542Z,-2.30
2019-01-22T00:04:32.585Z,-2.30
2019-01-22T00:05:39.653Z,-2.30
2019-01-22T00:06:46.304Z,-2.30
2019-01-22T00:07:53.101Z,-2.30
2019-01-22T00:08:59.845Z,-2.20
2019-01-22T00:10:09.193Z,-2.20
2019-01-22T00:11:16.224Z,-2.10
2019-01-22T00:12:22.960Z,-2.00
2019-01-22T00:13:30.534Z,-2.00
2019-01-22T00:14:37.583Z,-2.00
2019-01-22T00:15:44.663Z,-1.90
2019-01-22T00:16:52.076Z,-1.80
2019-01-22T00:18:29.667Z,-1.70
2019-01-22T00:19:07.492Z,-1.70
2019-01-22T00:20:14.782Z,-1.70
2019-01-22T00:21:21.441Z,-1.60
2019-01-22T00:22:28.456Z,-1.60
2019-01-22T00:23:35.232Z,-1.50
2019-01-22T00:24:41.982Z,-1.50
2019-01-22T00:25:48.678Z,-1.50
2019-01-22T00:26:55.759Z,-1.50
2019-01-22T00:28:02.483Z,-1.50
2019-01-22T00:29:09.235Z,-1.40
2019-01-22T00:30:18.378Z,-1.40
2019-01-22T00:31:25.073Z,-1.40
2019-01-22T00:32:32.113Z,-1.30
2019-01-22T00:33:39.121Z,-1.30
2019-01-22T00:34:45.848Z,-1.30
2019-01-22T00:35:52.900Z,-1.20
2019-01-22T00:36:59.964Z,-1.20
2019-01-22T00:38:07.054Z,-1.20
2019-01-22T00:39:14.134Z,-1.20
2019-01-22T00:40:21.121Z,-1.10
2019-01-22T00:41:27.824Z,-1.10
2019-01-22T00:42:34.563Z,-1.10
2019-01-22T00:43:41.903Z,-1.10
2019-01-22T00:44:48.840Z,-1.00
2019-01-22T00:45:55.874Z,-1.00
2019-01-22T00:47:03.032Z,-1.00
2019-01-22T00:48:10.163Z,-1.00
2019-01-22T00:49:17.204Z,-1.00
2019-01-22T00:50:24.036Z,-1.00
2019-01-22T00:51:30.737Z,-0.90
2019-01-22T00:52:37.488Z,-0.90
2019-01-22T00:53:44.444Z,-0.90
2019-01-22T00:54:51.462Z,-0.90
2019-01-22T00:55:58.192Z,-0.90
2019-01-22T00:57:04.890Z,-1.00
2019-01-22T00:58:11.708Z,-0.90
2019-01-22T00:59:18.767Z,-0.90
2019-01-22T01:00:32.323Z,-0.90
2019-01-22T01:01:39.276Z,-0.90
2019-01-22T01:02:46.276Z,-0.90
2019-01-22T01:03:53.020Z,-0.90
2019-01-22T01:04:59.735Z,-1.00
2019-01-22T01:06:06.645Z,-1.00
2019-01-22T01:07:13.997Z,-1.00
2019-01-22T01:08:20.690Z,-1.00
2019-01-22T01:09:27.427Z,-1.00
2019-01-22T01:10:34.150Z,-1.10
2019-01-22T01:11:40.897Z,-1.10
2019-01-22T01:12:47.724Z,-1.10
2019-01-22T01:13:54.457Z,-1.10
2019-01-22T01:15:01.199Z,-1.10
2019-01-22T01:16:07.858Z,-1.20
2019-01-22T01:17:14.608Z,-1.20
2019-01-22T01:18:21.339Z,-1.30
2019-01-22T01:19:28.442Z,-1.30
2019-01-22T01:20:35.121Z,-1.30
2019-01-22T01:21:42.188Z,-1.40
2019-01-22T01:22:49.043Z,-1.40
2019-01-22T01:23:55.813Z,-1.40
2019-01-22T01:25:02.678Z,-1.40
2019-01-22T01:26:09.328Z,-1.50
2019-01-22T01:27:16.315Z,-1.50
2019-01-22T01:28:23.314Z,-1.50
2019-01-22T01:29:30.041Z,-1.50
2019-01-22T01:30:36.829Z,-1.50
2019-01-22T01:31:43.602Z,-1.50
2019-01-22T01:32:50.384Z,-1.50
2019-01-22T01:33:57.475Z,-1.50
2019-01-22T01:35:04.530Z,-1.60
2019-01-22T01:36:11.501Z,-1.60
2019-01-22T01:37:18.586Z,-1.60
2019-01-22T01:38:25.300Z,-1.60
2019-01-22T01:39:32.193Z,-1.70
2019-01-22T01:40:39.198Z,-1.70
2019-01-22T01:41:46.292Z,-1.70
2019-01-22T01:42:53.356Z,-1.70
2019-01-22T01:44:00.874Z,-1.70
2019-01-22T01:45:08.814Z,-1.70
2019-01-22T01:46:15.489Z,-1.70
2019-01-22T01:47:22.346Z,-1.70
2019-01-22T01:48:29.089Z,-1.70
2019-01-22T01:49:35.828Z,-1.70
2019-01-22T01:50:42.802Z,-1.80
2019-01-22T01:51:50.162Z,-1.70
2019-01-22T01:52:56.958Z,-1.80
2019-01-22T01:54:03.936Z,-1.80
2019-01-22T01:55:12.632Z,-1.80
2019-01-22T01:56:19.376Z,-1.80
2019-01-22T01:57:26.102Z,-1.80
2019-01-22T01:58:32.921Z,-1.80
2019-01-22T01:59:39.635Z,-1.80
2019-01-22T02:00:46.503Z,-1.90
2019-01-22T02:01:53.227Z,-1.90
2019-01-22T02:02:59.986Z,-1.90
2019-01-22T02:04:07.254Z,-1.90
2019-01-22T02:05:13.956Z,-1.90
2019-01-22T02:06:21.104Z,-2.00
2019-01-22T02:07:28.977Z,-1.90
2019-01-22T02:08:36.251Z,-1.90
2019-01-22T02:09:43.188Z,-1.90
2019-01-22T02:10:49.943Z,-2.00
2019-01-22T02:11:56.653Z,-1.90
2019-01-22T02:13:29.450Z,-2.00
2019-01-22T02:14:44.432Z,-1.90
2019-01-22T02:16:50.634Z,-2.00
2019-01-22T02:18:33.545Z,-1.90
2019-01-22T02:20:23.619Z,-2.00
2019-01-22T02:22:12.509Z,-2.00
2019-01-22T02:24:14.017Z,-2.00
2019-01-22T02:26:19.602Z,-2.00
2019-01-22T02:27:46.328Z,-2.00
2019-01-22T02:29:11.551Z,-2.10
2019-01-22T02:31:16.873Z,-2.10
2019-01-22T02:33:37.433Z,-2.10
2019-01-22T02:35:34.453Z,-2.20
2019-01-22T02:37:21.516Z,-2.20
2019-01-22T02:39:33.239Z,-2.20
2019-01-22T02:41:27.685Z,-2.20
2019-01-22T02:43:25.366Z,-2.20
2019-01-22T02:45:43.976Z,-2.30
2019-01-22T02:47:28.945Z,-2.30
2019-01-22T02:49:48.134Z,-2.30
2019-01-22T02:52:11.979Z,-2.40
2019-01-22T02:53:56.653Z,-2.40
2019-01-22T02:55:21.955Z,-2.40
2019-01-22T02:57:32.342Z,-2.40
2019-01-22T02:59:24.064Z,-2.40
2019-01-22T03:01:47.336Z,-2.40
2019-01-22T03:03:49.060Z,-2.40
2019-01-22T03:05:48.748Z,-2.40
2019-01-22T03:07:43.863Z,-2.50
2019-01-22T03:10:07.603Z,-2.50
2019-01-22T03:12:21.513Z,-2.50
2019-01-22T03:14:43.950Z,-2.50
2019-01-22T03:16:51.559Z,-2.50
2019-01-22T03:18:42.810Z,-2.50
2019-01-22T03:20:21.066Z,-2.50
2019-01-22T03:22:39.733Z,-2.50
2019-01-22T03:24:19.087Z,-2.50
2019-01-22T03:26:26.139Z,-2.50
2019-01-22T03:28:17.509Z,-2.50
2019-01-22T03:30:13.517Z,-2.50
2019-01-22T03:31:59.156Z,-2.50
2019-01-22T03:33:53.239Z,-2.50
2019-01-22T03:35:57.836Z,-2.60
2019-01-22T03:38:10.070Z,-2.60
2019-01-22T03:40:23.892Z,-2.60
2019-01-22T03:42:25.828Z,-2.70
2019-01-22T03:44:35.478Z,-2.70
2019-01-22T03:46:26.039Z,-2.70
2019-01-22T03:48:17.120Z,-2.70
2019-01-22T03:50:00.744Z,-2.80
2019-01-22T03:51:36.862Z,-2.70
2019-01-22T03:53:43.805Z,-2.70
2019-01-22T03:55:25.545Z,-2.70
2019-01-22T03:57:30.771Z,-2.70
2019-01-22T03:58:37.790Z,-2.80
2019-01-22T03:59:44.549Z,-2.80
2019-01-22T04:01:19.322Z,-2.80
2019-01-22T04:02:30.313Z,-2.80
2019-01-22T04:03:37.550Z,-2.80
2019-01-22T04:04:44.242Z,-2.80
2019-01-22T04:05:54.026Z,-2.80
2019-01-22T04:07:02.339Z,-2.80
2019-01-22T04:08:09.998Z,-2.80
2019-01-22T04:09:45.880Z,-2.80
2019-01-22T04:11:12.862Z,-2.80
2019-01-22T04:12:19.916Z,-2.80
2019-01-22T04:13:27.102Z,-2.80
2019-01-22T04:14:33.874Z,-2.80
2019-01-22T04:15:43.844Z,-2.80
2019-01-22T04:16:51.088Z,-2.80
2019-01-22T04:17:57.830Z,-2.90
2019-01-22T04:19:05.073Z,-2.90
2019-01-22T04:20:14.642Z,-2.90
2019-01-22T04:21:25.864Z,-2.90
2019-01-22T04:22:41.180Z,-2.90
2019-01-22T04:24:41.100Z,-2.90
2019-01-22T04:26:21.307Z,-2.90
2019-01-22T04:27:55.975Z,-2.90
2019-01-22T04:30:20.322Z,-3.00
2019-01-22T04:32:03.312Z,-3.00
2019-01-22T04:34:27.888Z,-3.00
2019-01-22T04:36:28.501Z,-3.10
2019-01-22T04:37:58.660Z,-3.10
2019-01-22T04:39:55.899Z,-3.20
2019-01-22T04:42:03.547Z,-3.20
2019-01-22T04:44:26.418Z,-3.20
2019-01-22T04:46:14.436Z,-3.20
2019-01-22T04:48:22.873Z,-3.20
2019-01-22T04:50:22.384Z,-3.30
2019-01-22T04:52:34.158Z,-3.30
2019-01-22T04:54:48.711Z,-3.20
2019-01-22T04:56:30.767Z,-3.30
2019-01-22T04:58:41.037Z,-3.30
2019-01-22T05:00:53.446Z,-3.30
2019-01-22T05:02:51.944Z,-3.30
2019-01-22T05:04:37.524Z,-3.30
2019-01-22T05:06:41.632Z,-3.30
2019-01-22T05:09:04.405Z,-3.30
2019-01-22T05:11:12.830Z,-3.30
2019-01-22T05:13:03.478Z,-3.30
2019-01-22T05:15:07.922Z,-3.30
2019-01-22T05:17:08.146Z,-3.30
2019-01-22T05:19:19.122Z,-3.30
2019-01-22T05:21:08.601Z,-3.20
2019-01-22T05:23:15.564Z,-3.20
2019-01-22T05:25:26.742Z,-3.30
2019-01-22T05:27:54.774Z,-3.30
2019-01-22T05:30:09.833Z,-3.30
2019-01-22T05:32:19.987Z,-3.30
2019-01-22T05:34:14.180Z,-3.30
2019-01-22T05:35:59.225Z,-3.30
2019-01-22T05:38:13.075Z,-3.30
2019-01-22T05:40:12.171Z,-3.20
2019-01-22T05:42:02.476Z,-3.30
2019-01-22T05:44:22.549Z,-3.30
2019-01-22T05:46:41.685Z,-3.30
2019-01-22T05:48:45.170Z,-3.30
2019-01-22T05:50:40.117Z,-3.30
2019-01-22T05:52:16.974Z,-3.30
2019-01-22T05:54:15.366Z,-3.40
2019-01-22T05:55:31.816Z,-3.40
2019-01-22T05:57:42.044Z,-3.30
2019-01-22T05:59:30.965Z,-3.30
2019-01-22T06:01:11.093Z,-3.30
2019-01-22T06:02:49.687Z,-3.30
2019-01-22T06:05:19.645Z,-3.30
2019-01-22T06:07:33.710Z,-3.30
2019-01-22T06:09:38.258Z,-3.30
2019-01-22T06:11:46.712Z,-3.30
2019-01-22T06:13:29.591Z,-3.30
2019-01-22T06:15:17.037Z,-3.30
2019-01-22T06:17:27.275Z,-3.30
2019-01-22T06:19:20.283Z,-3.30
2019-01-22T06:21:09.439Z,-3.30
2019-01-22T06:23:18.466Z,-3.20
2019-01-22T06:25:49.668Z,-3.30
2019-01-22T06:27:33.525Z,-3.20
2019-01-22T06:29:41.986Z,-3.20
2019-01-22T06:31:28.781Z,-3.20
2019-01-22T06:33:13.094Z,-3.20
2019-01-22T06:35:21.053Z,-3.20
2019-01-22T06:37:42.753Z,-3.20
2019-01-22T06:39:38.250Z,-3.20
2019-01-22T06:41:52.916Z,-3.20
2019-01-22T06:43:47.747Z,-3.20
2019-01-22T06:45:30.136Z,-3.20
2019-01-22T06:47:16.516Z,-3.10
2019-01-22T06:49:16.500Z,-3.20
2019-01-22T06:51:39.880Z,-3.20
2019-01-22T06:53:36.826Z,-3.20
2019-01-22T06:55:13.754Z,-3.10
2019-01-22T06:57:11.109Z,-3.10
2019-01-22T06:59:19.364Z,-3.10
2019-01-22T07:01:33.054Z,-3.20
2019-01-22T07:02:56.391Z,-3.10
2019-01-22T07:04:38.723Z,-3.20
2019-01-22T07:06:35.688Z,-3.10
2019-01-22T07:08:52.479Z,-3.10
2019-01-22T07:10:49.180Z,-3.10
2019-01-22T07:12:55.052Z,-3.10
2019-01-22T07:15:19.661Z,-3.10
2019-01-22T07:16:50.946Z,-3.10
2019-01-22T07:19:13.239Z,-3.10
2019-01-22T07:21:14.760Z,-3.10
2019-01-22T07:23:26.480Z,-3.10
2019-01-22T07:25:33.953Z,-3.10
2019-01-22T07:28:01.974Z,-3.10
2019-01-22T07:30:16.794Z,-3.20
2019-01-22T07:32:17.991Z,-3.30
2019-01-22T07:34:22.417Z,-3.30
2019-01-22T07:36:01.908Z,-3.30
2019-01-22T07:37:57.586Z,-3.30
2019-01-22T07:39:18.897Z,-3.40
2019-01-22T07:41:50.347Z,-3.30
2019-01-22T07:43:33.368Z,-3.40
2019-01-22T07:45:21.049Z,-3.40
2019-01-22T07:47:02.054Z,-3.30
2019-01-22T07:48:25.678Z,-3.30
2019-01-22T07:50:30.097Z,-3.30
2019-01-22T07:52:17.879Z,-3.40
2019-01-22T07:54:33.630Z,-3.40
2019-01-22T07:56:52.015Z,-3.30
2019-01-22T07:58:55.849Z,-3.30
2019-01-22T08:01:07.702Z,-3.20
2019-01-22T08:03:17.561Z,-3.30
2019-01-22T08:05:28.109Z,-3.30
2019-01-22T08:07:14.625Z,-3.30
2019-01-22T08:09:08.047Z,-3.30
2019-01-22T08:11:00.439Z,-3.30
2019-01-22T08:13:21.156Z,-3.30
2019-01-22T08:15:25.165Z,-3.30
2019-01-22T08:17:48.836Z,-3.30
2019-01-22T08:19:44.446Z,-3.30
2019-01-22T08:21:24.855Z,-3.20
2019-01-22T08:23:30.420Z,-3.20
2019-01-22T08:25:44.584Z,-3.20
2019-01-22T08:27:50.092Z,-3.10
2019-01-22T08:29:52.949Z,-3.10
2019-01-22T08:31:34.073Z,-3.10
2019-01-22T08:33:33.533Z,-3.00
2019-01-22T08:35:53.989Z,-3.00
2019-01-22T08:37:52.580Z,-2.90
2019-01-22T08:39:33.760Z,-2.90
2019-01-22T08:41:14.900Z,-2.90
2019-01-22T08:43:16.395Z,-2.90
2019-01-22T08:45:04.153Z,-2.90
2019-01-22T08:46:40.982Z,-2.80
2019-01-22T08:48:38.538Z,-2.80
2019-01-22T08:50:54.549Z,-2.70
2019-01-22T08:52:43.105Z,-2.70
2019-01-22T08:54:58.435Z,-2.60
2019-01-22T08:56:55.942Z,-2.60
2019-01-22T08:59:14.380Z,-2.60
2019-01-22T09:01:02.863Z,-2.50
2019-01-22T09:03:01.799Z,-2.40
2019-01-22T09:04:52.260Z,-2.30
2019-01-22T09:06:38.800Z,-2.30
2019-01-22T09:08:20.460Z,-2.30
2019-01-22T09:10:13.085Z,-2.20
2019-01-22T09:12:14.067Z,-2.20
2019-01-22T09:13:55.059Z,-2.20
2019-01-22T09:16:26.910Z,-2.10
2019-01-22T09:18:00.947Z,-2.10
2019-01-22T09:19:37.225Z,-2.20
2019-01-22T09:21:24.881Z,-2.10
2019-01-22T09:23:46.569Z,-2.10
2019-01-22T09:25:07.257Z,-2.10
2019-01-22T09:27:23.652Z,-2.10
2019-01-22T09:29:26.073Z,-2.00
2019-01-22T09:31:31.078Z,-1.90
2019-01-22T09:34:04.630Z,-1.80
2019-01-22T09:36:41.742Z,-1.70
2019-01-22T09:37:56.258Z,-1.60
2019-01-22T09:39:04.073Z,-1.60
2019-01-22T09:40:12.062Z,-1.60
2019-01-22T09:41:18.900Z,-1.60
2019-01-22T09:42:25.597Z,-1.60
2019-01-22T09:43:32.293Z,-1.50
2019-01-22T09:44:38.952Z,-1.50
2019-01-22T09:45:45.627Z,-1.40
2019-01-22T09:46:52.348Z,-1.40
2019-01-22T09:47:59.024Z,-1.30
2019-01-22T09:49:05.791Z,-1.30
2019-01-22T09:50:13.160Z,-1.20
2019-01-22T09:51:20.193Z,-1.10
2019-01-22T09:52:27.094Z,-1.10
2019-01-22T09:53:34.091Z,-0.90
2019-01-22T09:54:40.823Z,-0.80
2019-01-22T09:55:47.892Z,-0.90
2019-01-22T09:56:54.567Z,-0.90
2019-01-22T09:58:01.261Z,-0.80
2019-01-22T09:59:08.294Z,-0.80
2019-01-22T10:00:18.023Z,-0.70
2019-01-22T10:01:24.969Z,-0.70
2019-01-22T10:02:32.126Z,-0.60
2019-01-22T10:03:39.135Z,-0.70
2019-01-22T10:04:45.828Z,-0.70
2019-01-22T10:05:52.491Z,-0.70
2019-01-22T10:06:59.585Z,-0.70
2019-01-22T10:08:06.538Z,-0.70
2019-01-22T10:09:13.593Z,-0.70
2019-01-22T10:10:42.079Z,-0.60
2019-01-22T10:11:49.467Z,-0.50
2019-01-22T10:12:56.270Z,-0.40
2019-01-22T10:14:03.311Z,-0.30
2019-01-22T10:15:12.943Z,-0.10
2019-01-22T10:16:19.730Z,-0.10
2019-01-22T10:17:26.410Z,-0.10
2019-01-22T10:18:33.433Z,0.00
2019-01-22T10:19:40.111Z,0.00
2019-01-22T10:20:46.828Z,-0.10
2019-01-22T10:21:53.920Z,0.00
2019-01-22T10:23:00.598Z,0.00
2019-01-22T10:24:08.075Z,0.00
2019-01-22T10:25:14.843Z,0.00
2019-01-22T10:26:21.546Z,0.00
2019-01-22T10:27:28.567Z,-0.10
2019-01-22T10:28:35.672Z,-0.10
2019-01-22T10:29:42.310Z,-0.10
2019-01-22T10:30:49.240Z,-0.10
2019-01-22T10:31:55.937Z,0.00
2019-01-22T10:33:03.024Z,0.20
2019-01-22T10:34:09.730Z,0.20
2019-01-22T10:35:17.442Z,0.20
2019-01-22T10:36:24.780Z,0.20
2019-01-22T10:37:31.784Z,0.30
2019-01-22T10:38:38.482Z,0.30
2019-01-22T10:39:45.809Z,0.30
2019-01-22T10:40:52.848Z,0.40
2019-01-22T10:42:00.200Z,0.40
2019-01-22T10:43:09.362Z,0.40
2019-01-22T10:44:15.648Z,0.40
2019-01-22T10:45:22.765Z,0.40
2019-01-22T10:46:29.848Z,0.50
2019-01-22T10:47:36.514Z,0.50
2019-01-22T10:48:43.205Z,0.50
2019-01-22T10:49:50.383Z,0.40
2019-01-22T10:50:57.076Z,0.20
2019-01-22T10:52:04.066Z,0.20
2019-01-22T10:53:11.048Z,0.30
2019-01-22T10:54:17.741Z,0.30
2019-01-22T10:55:24.415Z,0.30
2019-01-22T10:56:31.197Z,0.40
2019-01-22T10:57:37.979Z,0.40
2019-01-22T10:58:44.679Z,0.50
2019-01-22T10:59:51.386Z,0.50
2019-01-22T11:00:58.045Z,0.50
2019-01-22T11:02:05.278Z,0.50
2019-01-22T11:03:13.964Z,0.60
2019-01-22T11:04:20.694Z,0.50
2019-01-22T11:05:34.419Z,0.40
2019-01-22T11:06:41.368Z,0.40
2019-01-22T11:07:48.021Z,0.40
2019-01-22T11:08:55.257Z,0.40
2019-01-22T11:10:01.963Z,0.40
2019-01-22T11:11:08.597Z,0.30
2019-01-22T11:12:15.468Z,0.30
2019-01-22T11:13:22.224Z,0.40
2019-01-22T11:14:29.627Z,0.40
2019-01-22T11:15:36.605Z,0.40
2019-01-22T11:16:43.275Z,0.50
2019-01-22T11:17:49.973Z,0.50
2019-01-22T11:18:56.606Z,0.60
2019-01-22T11:20:03.292Z,0.60
2019-01-22T11:21:09.994Z,0.60
2019-01-22T11:22:17.053Z,0.60
2019-01-22T11:23:24.334Z,0.60
2019-01-22T11:24:31.075Z,0.60
2019-01-22T11:25:43.534Z,0.60
2019-01-22T11:26:47.098Z,0.60
2019-01-22T11:27:53.772Z,0.60
2019-01-22T11:29:01.169Z,0.60
2019-01-22T11:30:12.956Z,0.70
2019-01-22T11:31:20.030Z,0.80
2019-01-22T11:32:26.972Z,0.80
2019-01-22T11:33:33.645Z,0.90
2019-01-22T11:34:40.609Z,1.00
2019-01-22T11:35:47.320Z,1.00
2019-01-22T11:36:54.364Z,0.90
2019-01-22T11:38:01.051Z,1.00
2019-01-22T11:39:11.285Z,1.10
2019-01-22T11:40:25.446Z,1.00
2019-01-22T11:41:32.286Z,1.00
2019-01-22T11:42:39.271Z,1.00
2019-01-22T11:43:46.306Z,1.10
2019-01-22T11:44:52.997Z,1.10
2019-01-22T11:46:00.612Z,1.00
2019-01-22T11:47:07.787Z,1.00
2019-01-22T11:48:15.173Z,1.00
2019-01-22T11:49:23.441Z,1.10
2019-01-22T11:50:30.294Z,1.10
2019-01-22T11:51:37.801Z,1.10
2019-01-22T11:52:44.922Z,1.10
2019-01-22T11:53:51.662Z,1.20
2019-01-22T11:54:58.360Z,1.20
2019-01-22T11:56:05.334Z,1.20
2019-01-22T11:57:12.309Z,1.20
2019-01-22T11:58:18.976Z,1.20
2019-01-22T11:59:26.613Z,1.20
2019-01-22T12:00:45.112Z,1.20
2019-01-22T12:01:51.950Z,1.20
2019-01-22T12:02:58.683Z,1.30
2019-01-22T12:04:06.279Z,1.30
2019-01-22T12:05:12.951Z,1.40
2019-01-22T12:06:19.965Z,1.40
2019-01-22T12:07:26.993Z,1.50
2019-01-22T12:08:33.672Z,1.50
2019-01-22T12:09:40.407Z,1.50
2019-01-22T12:10:47.086Z,1.50
2019-01-22T12:11:53.741Z,1.60
2019-01-22T12:13:00.426Z,1.60
2019-01-22T12:14:07.713Z,1.60
2019-01-22T12:15:16.198Z,1.60
2019-01-22T12:16:22.885Z,1.60
2019-01-22T12:17:29.653Z,1.60
2019-01-22T12:18:36.390Z,1.60
2019-01-22T12:19:43.708Z,1.60
2019-01-22T12:20:51.104Z,1.70
2019-01-22T12:21:58.236Z,1.60
2019-01-22T12:23:05.125Z,1.60
2019-01-22T12:24:12.304Z,1.60
2019-01-22T12:25:19.508Z,1.60
2019-01-22T12:26:26.193Z,1.60
2019-01-22T12:27:33.146Z,1.50
2019-01-22T12:28:40.841Z,1.50
2019-01-22T12:29:47.548Z,1.50
2019-01-22T12:30:54.224Z,1.60
2019-01-22T12:32:00.880Z,1.50
2019-01-22T12:33:08.104Z,1.50
2019-01-22T12:34:15.224Z,1.50
2019-01-22T12:35:22.418Z,1.50
2019-01-22T12:36:29.176Z,1.50
2019-01-22T12:37:34.912Z,1.50
2019-01-22T12:38:42.301Z,1.50
2019-01-22T12:39:48.998Z,1.60
2019-01-22T12:40:55.669Z,1.60
2019-01-22T12:42:02.708Z,1.60
2019-01-22T12:43:09.799Z,1.70
2019-01-22T12:44:16.632Z,1.60
2019-01-22T12:45:38.802Z,1.60
2019-01-22T12:46:45.547Z,1.60
2019-01-22T12:47:52.255Z,1.60
2019-01-22T12:48:59.261Z,1.50
2019-01-22T12:50:07.729Z,1.50
2019-01-22T12:51:14.439Z,1.40
2019-01-22T12:52:21.798Z,1.40
2019-01-22T12:53:29.114Z,1.40
2019-01-22T12:54:35.904Z,1.40
2019-01-22T12:55:42.638Z,1.40
2019-01-22T12:56:49.671Z,1.30
2019-01-22T12:57:56.814Z,1.40
2019-01-22T12:59:03.512Z,1.30
2019-01-22T13:00:16.637Z,1.30
2019-01-22T13:01:23.311Z,1.40
2019-01-22T13:02:30.353Z,1.40
2019-01-22T13:03:37.225Z,1.40
2019-01-22T13:04:43.938Z,1.30
2019-01-22T13:06:10.001Z,1.40
2019-01-22T13:07:17.030Z,1.40
2019-01-22T13:08:23.699Z,1.50
2019-01-22T13:09:30.880Z,1.40
2019-01-22T13:10:37.557Z,1.50
2019-01-22T13:11:44.259Z,1.50
2019-01-22T13:12:50.934Z,1.50
2019-01-22T13:13:57.693Z,1.50
2019-01-22T13:15:04.990Z,1.50
2019-01-22T13:16:12.257Z,1.50
2019-01-22T13:17:19.299Z,1.40
2019-01-22T13:18:26.274Z,1.40
2019-01-22T13:19:32.952Z,1.40
2019-01-22T13:20:40.023Z,1.40
2019-01-22T13:21:46.739Z,1.40
2019-01-22T13:22:53.497Z,1.40
2019-01-22T13:24:00.559Z,1.40
2019-01-22T13:25:09.877Z,1.40
2019-01-22T13:26:17.185Z,1.40
2019-01-22T13:27:23.887Z,1.40
2019-01-22T13:28:30.851Z,1.40
2019-01-22T13:29:37.506Z,1.40
2019-01-22T13:30:44.311Z,1.40
2019-01-22T13:31:50.977Z,1.40
2019-01-22T13:32:57.913Z,1.40
2019-01-22T13:34:05.162Z,1.40
2019-01-22T13:35:12.689Z,1.40
2019-01-22T13:36:19.352Z,1.40
2019-01-22T13:37:26.042Z,1.40
2019-01-22T13:38:32.720Z,1.30
2019-01-22T13:39:39.728Z,1.30
2019-01-22T13:40:46.465Z,1.40
2019-01-22T13:41:53.122Z,1.30
2019-01-22T13:42:59.824Z,1.30
2019-01-22T13:44:06.946Z,1.40
2019-01-22T13:45:20.551Z,1.40
2019-01-22T13:46:27.269Z,1.40
2019-01-22T13:47:33.960Z,1.30
2019-01-22T13:48:40.701Z,1.30
2019-01-22T13:49:47.391Z,1.40
2019-01-22T13:50:54.056Z,1.40
2019-01-22T13:52:01.386Z,1.40
2019-01-22T13:53:08.560Z,1.40
2019-01-22T13:54:15.237Z,1.40
2019-01-22T13:55:32.528Z,1.30
2019-01-22T13:56:39.237Z,1.40
2019-01-22T13:57:45.893Z,1.40
2019-01-22T13:58:52.671Z,1.40
2019-01-22T13:59:59.629Z,1.40
2019-01-22T14:01:06.569Z,1.40
2019-01-22T14:02:14.304Z,1.40
2019-01-22T14:03:21.274Z,1.40
2019-01-22T14:04:28.110Z,1.40
2019-01-22T14:05:35.093Z,1.40
2019-01-22T14:06:42.139Z,1.40
2019-01-22T14:07:48.864Z,1.30
2019-01-22T14:08:55.881Z,1.30
2019-01-22T14:10:02.687Z,1.30
2019-01-22T14:11:09.655Z,1.30
2019-01-22T14:12:16.334Z,1.30
2019-01-22T14:13:22.980Z,1.20
2019-01-22T14:14:29.656Z,1.30
2019-01-22T14:15:40.291Z,1.20
2019-01-22T14:16:46.979Z,1.20
2019-01-22T14:17:54.105Z,1.20
2019-01-22T14:19:00.770Z,1.20
2019-01-22T14:20:09.966Z,1.20
2019-01-22T14:21:16.655Z,1.20
2019-01-22T14:22:23.797Z,1.30
2019-01-22T14:23:30.526Z,1.30
2019-01-22T14:24:37.175Z,1.20
2019-01-22T14:25:44.188Z,1.20
2019-01-22T14:26:51.061Z,1.30
2019-01-22T14:27:57.742Z,1.20
2019-01-22T14:29:04.462Z,1.20
2019-01-22T14:30:16.440Z,1.20
2019-01-22T14:31:23.170Z,1.20
2019-01-22T14:32:30.046Z,1.20
2019-01-22T14:33:37.018Z,1.20
2019-01-22T14:34:43.653Z,1.20
2019-01-22T14:35:50.628Z,1.20
2019-01-22T14:36:57.612Z,1.10
2019-01-22T14:38:05.031Z,1.20
2019-01-22T14:39:11.834Z,1.10
2019-01-22T14:40:18.680Z,1.10
2019-01-22T14:41:25.719Z,1.10
2019-01-22T14:42:32.738Z,1.10
2019-01-22T14:43:39.490Z,1.10
2019-01-22T14:44:46.301Z,1.10
2019-01-22T14:45:52.965Z,1.10
2019-01-22T14:46:59.984Z,1.10
2019-01-22T14:48:07.096Z,1.10
2019-01-22T14:49:14.097Z,1.10
2019-01-22T14:50:26.564Z,1.10
2019-01-22T14:51:33.232Z,1.10
2019-01-22T14:52:40.620Z,1.10
2019-01-22T14:53:47.288Z,1.10
2019-01-22T14:54:54.324Z,1.10
2019-01-22T14:56:01.319Z,1.00
2019-01-22T14:57:08.018Z,1.00
2019-01-22T14:58:14.870Z,1.00
2019-01-22T14:59:21.882Z,1.00
2019-01-22T15:00:30.476Z,1.00
2019-01-22T15:01:37.119Z,1.00
2019-01-22T15:02:44.089Z,1.00
2019-01-22T15:03:50.900Z,0.90
2019-01-22T15:04:57.643Z,0.90
2019-01-22T15:06:05.002Z,0.90
2019-01-22T15:07:12.071Z,0.90
2019-01-22T15:08:18.732Z,0.80
2019-01-22T15:09:25.425Z,0.80
2019-01-22T15:10:32.771Z,0.80
2019-01-22T15:11:40.034Z,0.80
2019-01-22T15:12:49.071Z,0.70
2019-01-22T15:13:55.801Z,0.70
2019-01-22T15:15:02.493Z,0.60
2019-01-22T15:16:09.249Z,0.60
2019-01-22T15:17:15.965Z,0.50
2019-01-22T15:18:22.675Z,0.40
2019-01-22T15:19:29.651Z,0.30
2019-01-22T15:20:36.755Z,0.30
2019-01-22T15:21:43.407Z,0.20
2019-01-22T15:22:50.477Z,0.10
2019-01-22T15:23:57.156Z,0.10
2019-01-22T15:25:04.014Z,0.10
2019-01-22T15:26:10.784Z,0.10
2019-01-22T15:27:17.537Z,0.10
2019-01-22T15:28:24.199Z,0.10
2019-01-22T15:29:30.878Z,0.10
2019-01-22T15:30:38.948Z,0.10
2019-01-22T15:31:45.637Z,0.10
2019-01-22T15:32:52.381Z,0.10
2019-01-22T15:33:59.454Z,0.10
2019-01-22T15:35:08.373Z,0.10
2019-01-22T15:36:15.410Z,0.20
2019-01-22T15:37:22.052Z,0.20
2019-01-22T15:38:29.259Z,0.20
2019-01-22T15:39:36.378Z,0.20
2019-01-22T15:40:43.037Z,0.20
2019-01-22T15:41:49.984Z,0.20
2019-01-22T15:42:56.648Z,0.10
2019-01-22T15:44:03.395Z,0.10
2019-01-22T15:45:10.596Z,0.10
2019-01-22T15:46:17.335Z,0.10
2019-01-22T15:47:24.448Z,0.10
2019-01-22T15:48:32.573Z,0.10
2019-01-22T15:49:39.770Z,0.10
2019-01-22T15:50:48.063Z,0.10
2019-01-22T15:51:55.122Z,0.00
2019-01-22T15:53:01.788Z,0.00
2019-01-22T15:54:09.005Z,0.00
2019-01-22T15:55:26.498Z,0.00
2019-01-22T15:56:33.486Z,0.00
2019-01-22T15:57:40.446Z,-0.10
2019-01-22T15:58:47.135Z,-0.10
2019-01-22T15:59:53.834Z,0.00
2019-01-22T16:01:00.570Z,0.00
2019-01-22T16:02:07.754Z,-0.10
2019-01-22T16:03:15.931Z,-0.10
2019-01-22T16:04:22.870Z,-0.10
2019-01-22T16:05:29.986Z,-0.10
2019-01-22T16:06:37.621Z,-0.10
2019-01-22T16:07:44.293Z,-0.10
2019-01-22T16:08:50.972Z,-0.10
2019-01-22T16:09:57.998Z,-0.10
2019-01-22T16:11:05.002Z,-0.10
2019-01-22T16:12:11.688Z,-0.10
2019-01-22T16:13:18.477Z,-0.10
2019-01-22T16:14:25.211Z,-0.10
2019-01-22T16:15:32.225Z,-0.10
2019-01-22T16:16:39.181Z,-0.10
2019-01-22T16:17:46.172Z,-0.10
2019-01-22T16:18:53.629Z,0.00
2019-01-22T16:20:00.817Z,0.00
2019-01-22T16:21:07.535Z,-0.10
2019-01-22T16:22:14.214Z,-0.10
2019-01-22T16:23:20.898Z,-0.10
2019-01-22T16:24:27.615Z,-0.10
2019-01-22T16:25:34.636Z,-0.10
2019-01-22T16:26:41.296Z,-0.10
2019-01-22T16:27:48.685Z,-0.10
2019-01-22T16:28:55.413Z,0.00
2019-01-22T16:30:02.090Z,0.00
2019-01-22T16:31:08.747Z,0.00
2019-01-22T16:32:15.765Z,-0.10
2019-01-22T16:33:22.475Z,-0.10
2019-01-22T16:34:29.182Z,-0.10
2019-01-22T16:35:36.181Z,-0.10
2019-01-22T16:36:42.873Z,-0.10
2019-01-22T16:37:49.822Z,-0.10
2019-01-22T16:38:56.512Z,-0.10
2019-01-22T16:40:03.202Z,0.00
2019-01-22T16:41:10.649Z,-0.10
2019-01-22T16:42:17.388Z,-0.10
2019-01-22T16:43:24.066Z,-0.10
2019-01-22T16:44:30.729Z,-0.10
2019-01-22T16:45:38.745Z,-0.10
2019-01-22T16:46:45.453Z,-0.10
2019-01-22T16:47:52.477Z,0.00
2019-01-22T16:48:59.286Z,-0.10
2019-01-22T16:50:09.643Z,-0.10
2019-01-22T16:51:16.426Z,-0.10
2019-01-22T16:52:23.477Z,-0.10
2019-01-22T16:53:30.860Z,-0.10
2019-01-22T16:54:37.567Z,-0.10
2019-01-22T16:55:44.611Z,-0.10
2019-01-22T16:56:51.379Z,-0.10
2019-01-22T16:57:58.361Z,-0.10
2019-01-22T16:59:05.726Z,-0.20
2019-01-22T17:00:18.790Z,-0.20
2019-01-22T17:01:25.848Z,-0.20
2019-01-22T17:02:32.576Z,-0.20
2019-01-22T17:03:39.281Z,-0.20
2019-01-22T17:04:46.255Z,-0.20
2019-01-22T17:05:56.000Z,-0.20
2019-01-22T17:07:04.729Z,-0.20
2019-01-22T17:08:11.398Z,-0.20
2019-01-22T17:09:18.446Z,-0.20
2019-01-22T17:10:25.567Z,-0.20
2019-01-22T17:11:32.257Z,-0.20
2019-01-22T17:12:39.387Z,-0.20
2019-01-22T17:13:46.601Z,-0.30
2019-01-22T17:14:53.249Z,-0.30
2019-01-22T17:16:00.323Z,-0.40
2019-01-22T17:17:07.083Z,-0.30
2019-01-22T17:18:14.257Z,-0.40
2019-01-22T17:19:21.338Z,-0.40
2019-01-22T17:20:31.769Z,-0.50
2019-01-22T17:21:38.453Z,-0.50
2019-01-22T17:22:45.144Z,-0.50
2019-01-22T17:23:52.617Z,-0.50
2019-01-22T17:24:59.706Z,-0.50
2019-01-22T17:26:06.569Z,-0.50
2019-01-22T17:27:13.322Z,-0.50
2019-01-22T17:28:20.024Z,-0.50
2019-01-22T17:29:27.158Z,-0.60
2019-01-22T17:30:34.273Z,-0.60
2019-01-22T17:32:04.661Z,-0.60
2019-01-22T17:33:20.550Z,-0.60
2019-01-22T17:34:27.896Z,-0.60
2019-01-22T17:35:36.512Z,-0.70
2019-01-22T17:36:43.328Z,-0.60
2019-01-22T17:37:50.297Z,-0.70
2019-01-22T17:38:57.321Z,-0.70
2019-01-22T17:40:04.323Z,-0.70
2019-01-22T17:41:11.601Z,-0.80
2019-01-22T17:42:18.264Z,-0.80